Time;durP1;ratioP1;P1;durP2;ratioP2;P2;SDS_P1;SDS_P2;PMS_P1;PMS_P2;Temp;Humidity;BMP_temperature;BMP_pressure;BME280_temperature;BME280_humidity;BME280_pressure;Samples;Min_cycle;Max_cycle;Signal;HPM_P1;HPM_P2
2022/10/22 00:00:39;;;;;;;31.68;21.10;;;;;;;10.11;90.91;100381.22;1600813;88;25772;-79
2022/10/22 00:03:07;;;;;;;30.65;20.62;;;;;;;10.12;90.94;100381.02;1620575;87;26472;-80
2022/10/22 00:05:33;;;;;;;30.57;20.40;;;;;;;10.13;90.94;100377.84;1619553;87;25773;-79
2022/10/22 00:07:59;;;;;;;27.10;19.73;;;;;;;10.15;90.92;100377.14;1620165;87;25874;-79
2022/10/22 00:10:26;;;;;;;30.92;20.37;;;;;;;10.15;91.00;100379.31;1573749;90;27562;-79
2022/10/22 00:12:52;;;;;;;30.50;21.30;;;;;;;10.17;91.08;100375.94;1630538;87;25821;-79
2022/10/22 00:15:18;;;;;;;29.85;20.85;;;;;;;10.17;91.04;100369.25;1628450;86;25846;-79
2022/10/22 00:17:45;;;;;;;33.58;20.50;;;;;;;10.17;91.07;100363.89;1628391;87;25888;-79
2022/10/22 00:20:12;;;;;;;28.10;20.05;;;;;;;10.19;91.12;100363.19;1626616;86;25340;-78
2022/10/22 00:22:38;;;;;;;32.25;21.15;;;;;;;10.20;91.15;100361.35;1624227;86;28229;-80
2022/10/22 00:25:05;;;;;;;33.98;21.30;;;;;;;10.21;91.11;100362.99;1626758;86;25810;-79
2022/10/22 00:27:31;;;;;;;37.15;23.07;;;;;;;10.21;91.26;100355.80;1629875;87;26520;-79
2022/10/22 00:29:57;;;;;;;36.38;21.77;;;;;;;10.19;91.37;100360.52;1627861;86;26543;-79
2022/10/22 00:32:24;;;;;;;32.95;20.85;;;;;;;10.20;91.42;100358.67;1628816;87;25906;-79
2022/10/22 00:34:50;;;;;;;32.00;19.65;;;;;;;10.20;91.48;100362.16;1628363;86;27473;-79
2022/10/22 00:37:16;;;;;;;33.38;21.95;;;;;;;10.21;91.55;100352.28;1629793;86;26193;-79
2022/10/22 00:39:42;;;;;;;27.65;19.42;;;;;;;10.23;91.61;100355.59;1631562;86;25835;-78
2022/10/22 00:42:19;;;;;;;29.90;19.20;;;;;;;10.24;91.64;100351.92;1618804;86;25969;-79
2022/10/22 00:45:17;;;;;;;33.15;20.23;;;;;;;10.25;91.66;100351.72;1627530;86;25930;-80
2022/10/22 00:47:57;;;;;;;30.60;20.60;;;;;;;10.28;91.69;100345.16;1605265;89;27707;-80
2022/10/22 00:50:35;;;;;;;31.05;20.57;;;;;;;10.26;91.80;100341.34;1589197;87;26100;-80
2022/10/22 00:53:06;;;;;;;31.00;20.82;;;;;;;10.27;91.93;100338.13;1626014;86;25855;-80
2022/10/22 00:55:33;;;;;;;28.77;19.10;;;;;;;10.28;91.96;100336.63;1626520;87;25858;-80
2022/10/22 00:58:01;;;;;;;29.10;19.50;;;;;;;10.29;91.99;100332.91;1629666;86;25877;-80
2022/10/22 01:00:27;;;;;;;35.25;20.08;;;;;;;10.32;92.00;100331.20;1620582;86;27498;-81
2022/10/22 01:02:55;;;;;;;29.85;19.52;;;;;;;10.33;92.06;100329.36;1623125;87;25872;-80
2022/10/22 01:05:22;;;;;;;26.42;19.42;;;;;;;10.33;92.05;100332.84;1632275;86;25846;-80
2022/10/22 01:07:51;;;;;;;29.30;19.27;;;;;;;10.35;92.04;100321.97;1631110;87;25834;-80
2022/10/22 01:10:38;;;;;;;25.88;19.27;;;;;;;10.37;92.17;100327.95;1632682;86;26584;-80
2022/10/22 01:13:39;;;;;;;35.25;19.62;;;;;;;10.38;92.16;100324.24;1631136;86;27582;-80
2022/10/22 01:16:20;;;;;;;30.72;19.17;;;;;;;10.37;92.20;100319.39;1626993;86;27088;-79
2022/10/22 01:18:58;;;;;;;25.97;18.80;;;;;;;10.41;92.28;100322.53;1613847;87;26529;-80
2022/10/22 01:21:44;;;;;;;31.37;19.80;;;;;;;10.41;92.35;100323.37;1580355;89;25862;-80
2022/10/22 01:24:29;;;;;;;27.70;19.10;;;;;;;10.41;92.44;100322.03;1621140;87;25867;-80
2022/10/22 01:27:34;;;;;;;25.10;18.10;;;;;;;10.41;92.64;100313.16;1617939;87;28253;-79
2022/10/22 01:30:10;;;;;;;33.42;20.45;;;;;;;10.40;92.92;100306.13;1616404;87;25802;-79
2022/10/22 01:32:42;;;;;;;28.02;20.00;;;;;;;10.37;93.20;100306.00;1570487;90;25794;-79
2022/10/22 01:35:13;;;;;;;30.00;19.45;;;;;;;10.37;93.48;100306.00;1623064;86;44579;-79
2022/10/22 01:37:45;;;;;;;28.70;20.95;;;;;;;10.36;93.66;100303.53;1623171;87;26548;-80
2022/10/22 01:40:14;;;;;;;24.70;18.77;;;;;;;10.37;93.90;100306.54;1631223;86;27488;-80
2022/10/22 01:42:41;;;;;;;30.25;20.25;;;;;;;10.38;94.06;100305.50;1629247;87;25898;-80
2022/10/22 01:45:12;;;;;;;28.77;19.73;;;;;;;10.38;94.18;100305.00;1629231;86;25825;-81
2022/10/22 01:48:01;;;;;;;29.05;19.50;;;;;;;10.38;94.26;100298.80;1625505;87;25779;-80
2022/10/22 01:50:41;;;;;;;25.60;19.55;;;;;;;10.39;94.33;100302.63;1625003;87;25923;-79
2022/10/22 01:53:33;;;;;;;29.98;20.95;;;;;;;10.41;94.55;100299.77;1632577;87;28406;-80
2022/10/22 01:56:30;;;;;;;26.80;19.20;;;;;;;10.39;94.70;100293.25;1596804;88;25936;-80
2022/10/22 01:59:17;;;;;;;26.17;18.55;;;;;;;10.41;94.83;100297.09;1616346;87;25855;-80
2022/10/22 02:02:24;;;;;;;28.77;19.05;;;;;;;10.41;94.90;100308.64;1620158;87;25934;-80
2022/10/22 02:05:00;;;;;;;28.55;19.32;;;;;;;10.42;95.07;100310.78;1580764;89;25892;-80
2022/10/22 02:07:38;;;;;;;25.32;19.00;;;;;;;10.41;95.19;100300.61;1577499;89;27498;-80
2022/10/22 02:10:07;;;;;;;25.23;18.35;;;;;;;10.42;95.26;100306.77;1618043;88;25872;-80
2022/10/22 02:12:35;;;;;;;27.22;19.50;;;;;;;10.42;95.33;100312.13;1608223;88;25850;-80
2022/10/22 02:15:03;;;;;;;28.23;19.02;;;;;;;10.41;95.37;100303.79;1618336;88;26038;-80
2022/10/22 02:17:32;;;;;;;27.42;20.17;;;;;;;10.41;95.48;100308.64;1608824;88;25934;-80
2022/10/22 02:20:04;;;;;;;29.18;20.10;;;;;;;10.43;95.58;100309.78;1619766;87;27470;-80
2022/10/22 02:22:31;;;;;;;29.18;20.37;;;;;;;10.43;95.59;100302.58;1628501;87;25863;-80
2022/10/22 02:24:58;;;;;;;29.25;19.62;;;;;;;10.45;95.64;100300.53;1630863;86;26515;-79
2022/10/22 02:27:32;;;;;;;29.92;20.20;;;;;;;10.45;95.67;100308.57;1625824;87;25938;-80
2022/10/22 02:30:11;;;;;;;25.25;17.57;;;;;;;10.45;95.72;100312.59;1628629;86;25853;-80
2022/10/22 02:32:52;;;;;;;27.05;18.55;;;;;;;10.46;95.78;100306.70;1615560;86;28309;-79
2022/10/22 02:35:22;;;;;;;25.60;17.65;;;;;;;10.47;95.83;100297.66;1620282;87;25875;-80
2022/10/22 02:37:50;;;;;;;26.68;18.92;;;;;;;10.47;95.91;100301.67;1627355;86;26381;-80
2022/10/22 02:40:17;;;;;;;23.07;18.45;;;;;;;10.46;95.99;100306.19;1628799;86;25831;-80
2022/10/22 02:42:47;;;;;;;28.02;18.75;;;;;;;10.45;96.12;100299.70;1630908;86;25884;-80
2022/10/22 02:45:14;;;;;;;32.30;19.48;;;;;;;10.45;96.20;100298.36;1629348;86;27654;-80
2022/10/22 02:47:40;;;;;;;25.75;19.52;;;;;;;10.45;96.27;100294.34;1608135;87;25909;-79
2022/10/22 02:50:07;;;;;;;22.15;17.92;;;;;;;10.46;96.36;100295.98;1628238;86;26646;-80
2022/10/22 02:52:33;;;;;;;25.15;18.27;;;;;;;10.46;96.48;100296.82;1623174;87;25811;-80
2022/10/22 02:55:00;;;;;;;24.37;18.62;;;;;;;10.48;96.54;100295.28;1628446;86;25560;-80
2022/10/22 02:57:26;;;;;;;25.82;18.67;;;;;;;10.48;96.54;100296.12;1627236;86;27459;-80
2022/10/22 02:59:52;;;;;;;25.60;18.07;;;;;;;10.48;96.66;100289.42;1628284;86;26529;-80
2022/10/22 03:02:19;;;;;;;27.98;18.45;;;;;;;10.49;96.75;100290.25;1618324;88;25915;-80
2022/10/22 03:04:45;;;;;;;25.52;17.67;;;;;;;10.51;96.82;100289.55;1616327;88;27039;-80
2022/10/22 03:07:11;;;;;;;25.50;16.82;;;;;;;10.50;96.87;100285.23;1606044;87;25423;-80
2022/10/22 03:09:38;;;;;;;21.62;15.83;;;;;;;10.51;96.92;100282.86;1611889;88;27486;-80
2022/10/22 03:12:04;;;;;;;21.30;15.63;;;;;;;10.52;96.96;100278.64;1599315;88;26679;-80
2022/10/22 03:14:31;;;;;;;21.90;16.93;;;;;;;10.52;96.99;100277.30;1611738;88;25818;-79
2022/10/22 03:16:57;;;;;;;21.52;16.35;;;;;;;10.53;97.03;100278.97;1613030;88;25827;-80
2022/10/22 03:19:23;;;;;;;21.50;16.02;;;;;;;10.55;97.06;100276.09;1603736;88;25876;-80
2022/10/22 03:21:58;;;;;;;20.05;16.10;;;;;;;10.57;97.12;100274.04;1609480;88;27486;-80
2022/10/22 03:24:30;;;;;;;19.00;15.23;;;;;;;10.58;97.13;100279.22;1605217;88;26321;-80
2022/10/22 03:26:57;;;;;;;23.57;16.37;;;;;;;10.60;97.17;100285.72;1596038;88;26559;-80
2022/10/22 03:29:26;;;;;;;22.30;16.12;;;;;;;10.60;97.18;100287.05;1605063;88;26566;-80
2022/10/22 03:31:54;;;;;;;23.60;15.65;;;;;;;10.61;97.26;100290.03;1600558;88;25811;-80
2022/10/22 03:34:20;;;;;;;19.32;14.95;;;;;;;10.60;97.25;100295.92;1596591;88;27548;-80
2022/10/22 03:36:47;;;;;;;21.20;16.48;;;;;;;10.60;97.32;100307.14;1612935;88;25770;-80
2022/10/22 03:39:15;;;;;;;20.08;15.25;;;;;;;10.62;97.38;100313.13;1606524;88;25362;-80
2022/10/22 03:41:43;;;;;;;20.57;15.58;;;;;;;10.61;97.53;100312.30;1611293;88;26082;-80
2022/10/22 03:44:10;;;;;;;22.48;15.55;;;;;;;10.60;97.57;100305.80;1590334;89;25378;-80
2022/10/22 03:46:36;;;;;;;24.32;16.93;;;;;;;10.58;97.64;100289.94;1571464;90;27513;-80
2022/10/22 03:49:03;;;;;;;20.05;16.48;;;;;;;10.60;97.71;100289.73;1573651;90;26405;-80
2022/10/22 03:51:30;;;;;;;20.57;15.90;;;;;;;10.59;97.81;100288.90;1577067;90;25912;-80
2022/10/22 03:53:56;;;;;;;21.23;15.80;;;;;;;10.60;97.94;100293.25;1577843;90;25871;-80
2022/10/22 03:56:23;;;;;;;23.77;17.80;;;;;;;10.58;98.00;100307.34;1575056;89;25853;-80
2022/10/22 03:58:49;;;;;;;21.93;17.23;;;;;;;10.56;98.10;100306.68;1608335;88;27634;-80
2022/10/22 04:01:15;;;;;;;22.93;16.82;;;;;;;10.56;98.20;100297.84;1600788;88;25875;-80
2022/10/22 04:03:42;;;;;;;24.43;17.92;;;;;;;10.55;98.32;100292.98;1613546;88;25873;-80
2022/10/22 04:06:12;;;;;;;24.87;18.30;;;;;;;10.54;98.40;100277.92;1610311;87;26988;-80
2022/10/22 04:08:40;;;;;;;24.40;18.27;;;;;;;10.55;98.49;100273.41;1609337;88;29653;-80
2022/10/22 04:11:07;;;;;;;21.00;16.55;;;;;;;10.56;98.51;100271.86;1608865;88;27485;-80
2022/10/22 04:13:34;;;;;;;24.72;18.20;;;;;;;10.58;98.54;100272.53;1602136;88;25550;-80
2022/10/22 04:16:17;;;;;;;23.27;18.37;;;;;;;10.60;98.54;100271.82;1606675;88;25474;-80
2022/10/22 04:18:47;;;;;;;23.95;18.07;;;;;;;10.63;98.52;100274.59;1607488;88;25884;-80
2022/10/22 04:21:17;;;;;;;27.07;19.05;;;;;;;10.64;98.52;100270.41;1610074;88;26067;-80
2022/10/22 04:23:47;;;;;;;23.90;17.67;;;;;;;10.65;98.48;100272.05;1611952;88;28210;-80
2022/10/22 04:26:13;;;;;;;22.87;17.10;;;;;;;10.68;98.40;100269.49;1604836;88;25822;-80
2022/10/22 04:28:40;;;;;;;27.42;17.60;;;;;;;10.67;98.33;100263.84;1606183;88;25955;-80
2022/10/22 04:31:10;;;;;;;26.95;18.32;;;;;;;10.68;98.32;100254.25;1607456;88;25858;-80
2022/10/22 04:33:36;;;;;;;25.08;17.98;;;;;;;10.72;98.26;100254.68;1601113;88;25662;-80
2022/10/22 04:36:10;;;;;;;25.80;17.62;;;;;;;10.73;98.19;100252.33;1610693;88;27584;-80
2022/10/22 04:38:38;;;;;;;25.45;17.02;;;;;;;10.74;98.16;100253.47;1604137;88;25828;-80
2022/10/22 04:41:13;;;;;;;26.57;18.10;;;;;;;10.73;98.09;100259.03;1601003;88;25800;-80
2022/10/22 04:43:40;;;;;;;25.50;16.95;;;;;;;10.72;98.05;100255.52;1600621;88;26636;-80
2022/10/22 04:46:10;;;;;;;25.68;17.52;;;;;;;10.73;98.11;100255.81;1600133;88;25866;-80
2022/10/22 04:48:39;;;;;;;23.18;17.62;;;;;;;10.76;98.05;100256.78;1604771;88;27626;-80
2022/10/22 04:51:09;;;;;;;22.62;17.10;;;;;;;10.76;98.01;100252.76;1605175;88;25794;-80
2022/10/22 04:53:35;;;;;;;23.73;16.97;;;;;;;10.78;97.94;100260.08;1609561;88;26446;-80
2022/10/22 04:56:12;;;;;;;25.40;17.20;;;;;;;10.78;97.92;100251.21;1610442;88;26556;-80
2022/10/22 04:58:41;;;;;;;27.15;18.87;;;;;;;10.80;97.86;100258.54;1614511;88;25879;-79
2022/10/22 05:01:14;;;;;;;21.25;16.27;;;;;;;10.79;97.78;100267.11;1613272;88;27470;-80
2022/10/22 05:03:42;;;;;;;23.05;17.35;;;;;;;10.79;97.74;100274.31;1614563;88;25822;-80
2022/10/22 05:06:09;;;;;;;21.37;16.32;;;;;;;10.80;97.69;100274.61;1615118;87;25842;-80
2022/10/22 05:08:36;;;;;;;26.42;17.20;;;;;;;10.78;97.71;100273.48;1611102;88;25866;-80
2022/10/22 05:11:19;;;;;;;26.12;17.60;;;;;;;10.78;97.72;100276.16;1615644;88;25389;-80
2022/10/22 05:13:46;;;;;;;22.40;16.40;;;;;;;10.79;97.67;100277.00;1611427;88;27550;-80
2022/10/22 05:16:13;;;;;;;24.77;17.23;;;;;;;10.79;97.66;100275.66;1615084;88;25876;-80
2022/10/22 05:18:43;;;;;;;25.20;17.35;;;;;;;10.79;97.64;100279.17;1614096;88;25322;-80
2022/10/22 05:21:16;;;;;;;24.43;17.55;;;;;;;10.81;97.62;100279.80;1612421;88;26342;-80
2022/10/22 05:23:45;;;;;;;20.72;16.55;;;;;;;10.83;97.57;100275.07;1613955;88;25896;-80
2022/10/22 05:26:14;;;;;;;21.90;15.98;;;;;;;10.82;97.51;100277.42;1609255;88;27485;-80
2022/10/22 05:28:41;;;;;;;24.82;16.95;;;;;;;10.84;97.49;100267.87;1610998;88;25807;-80
2022/10/22 05:31:10;;;;;;;25.75;17.73;;;;;;;10.85;97.46;100260.13;1615764;88;26615;-80
2022/10/22 05:33:38;;;;;;;21.97;15.88;;;;;;;10.86;97.46;100262.60;1613450;88;26457;-80
2022/10/22 05:36:07;;;;;;;22.95;17.15;;;;;;;10.86;97.36;100260.45;1603275;88;25893;-80
2022/10/22 05:38:34;;;;;;;24.20;18.10;;;;;;;10.86;97.40;100262.60;1607998;88;27497;-80
2022/10/22 05:41:07;;;;;;;24.20;17.77;;;;;;;10.88;97.41;100261.89;1614915;88;26408;-80
2022/10/22 05:43:34;;;;;;;22.95;16.82;;;;;;;10.90;97.39;100261.72;1614016;88;26585;-80
2022/10/22 05:46:04;;;;;;;24.15;17.77;;;;;;;10.90;97.40;100260.38;1611275;88;26417;-80
2022/10/22 05:48:31;;;;;;;24.20;17.05;;;;;;;10.91;97.43;100251.30;1610498;88;25945;-80
2022/10/22 05:51:05;;;;;;;27.45;17.62;;;;;;;10.94;97.50;100253.59;1613628;88;27562;-80
2022/10/22 05:53:34;;;;;;;23.80;17.35;;;;;;;10.97;97.51;100254.52;1612664;88;25929;-80
2022/10/22 05:56:03;;;;;;;24.43;17.15;;;;;;;10.98;97.38;100260.72;1611596;88;25811;-80
2022/10/22 05:58:31;;;;;;;23.98;16.65;;;;;;;10.99;97.40;100259.70;1609484;88;25997;-80
2022/10/22 06:01:03;;;;;;;22.50;17.77;;;;;;;10.99;97.35;100254.34;1604483;88;25930;-80
2022/10/22 06:03:30;;;;;;;22.87;16.40;;;;;;;11.01;97.38;100261.67;1612931;88;28306;-79
2022/10/22 06:06:01;;;;;;;23.20;16.37;;;;;;;11.00;97.38;100255.98;1614622;88;25945;-80
2022/10/22 06:08:28;;;;;;;23.10;16.00;;;;;;;11.01;97.34;100257.16;1626753;87;26470;-79
2022/10/22 06:10:54;;;;;;;23.02;17.23;;;;;;;11.02;97.31;100257.95;1632912;87;26559;-80
2022/10/22 06:13:21;;;;;;;26.68;17.35;;;;;;;11.03;97.29;100244.88;1628332;87;26555;-80
2022/10/22 06:15:51;;;;;;;24.95;17.73;;;;;;;11.03;97.14;100266.33;1628642;87;27497;-80
2022/10/22 06:18:18;;;;;;;25.95;16.82;;;;;;;11.00;97.08;100271.56;1629380;87;25858;-80
2022/10/22 06:20:46;;;;;;;21.55;15.70;;;;;;;10.98;97.16;100274.12;1621636;88;25613;-80
2022/10/22 06:23:13;;;;;;;25.90;17.42;;;;;;;10.97;97.14;100279.17;1616134;87;25781;-81
2022/10/22 06:25:40;;;;;;;24.50;15.08;;;;;;;10.95;97.10;100283.38;1603253;88;25688;-80
2022/10/22 06:28:06;;;;;;;23.07;17.70;;;;;;;10.95;97.14;100279.89;1618209;87;27547;-80
2022/10/22 06:30:33;;;;;;;23.80;16.73;;;;;;;10.95;97.12;100284.71;1617828;87;25894;-80
2022/10/22 06:32:59;;;;;;;25.43;17.48;;;;;;;10.96;97.20;100286.89;1631812;86;26549;-79
2022/10/22 06:35:25;;;;;;;22.93;16.35;;;;;;;10.97;97.26;100284.54;1632271;86;25935;-79
2022/10/22 06:37:51;;;;;;;28.47;18.57;;;;;;;10.95;97.30;100294.09;1603251;88;25905;-79
2022/10/22 06:40:18;;;;;;;24.65;16.27;;;;;;;10.94;97.27;100293.80;1620816;87;27492;-80
2022/10/22 06:42:44;;;;;;;24.27;17.87;;;;;;;10.93;97.26;100301.50;1619142;87;25707;-79
2022/10/22 06:45:10;;;;;;;25.12;15.90;;;;;;;10.91;97.34;100292.00;1614598;87;25859;-79
2022/10/22 06:47:37;;;;;;;29.98;16.60;;;;;;;10.88;97.49;100292.41;1600491;87;26592;-79
2022/10/22 06:50:06;;;;;;;25.70;16.77;;;;;;;10.89;98.02;100301.58;1605773;87;26548;-79
2022/10/22 06:52:32;;;;;;;22.42;18.23;;;;;;;10.88;97.84;100304.47;1595759;88;27556;-80
2022/10/22 06:54:58;;;;;;;26.52;17.20;;;;;;;10.88;98.03;100312.50;1573326;89;26340;-80
2022/10/22 06:57:25;;;;;;;27.77;17.30;;;;;;;10.88;98.04;100323.52;1619734;87;26510;-80
2022/10/22 06:59:51;;;;;;;25.37;17.37;;;;;;;10.87;98.08;100329.09;1621152;87;26547;-80
2022/10/22 07:02:17;;;;;;;24.27;18.45;;;;;;;10.87;98.11;100331.77;1573720;90;25845;-80
2022/10/22 07:04:44;;;;;;;24.92;16.90;;;;;;;10.88;98.19;100328.87;1602254;88;27472;-80
2022/10/22 07:07:10;;;;;;;27.77;17.90;;;;;;;10.89;98.19;100325.70;1576948;89;26002;-80
2022/10/22 07:09:38;;;;;;;26.07;18.30;;;;;;;10.90;98.25;100326.53;1603979;88;25918;-80
2022/10/22 07:12:04;;;;;;;24.07;16.67;;;;;;;10.91;98.40;100334.88;1615707;87;26568;-80
2022/10/22 07:14:31;;;;;;;26.60;18.05;;;;;;;10.91;98.54;100336.21;1620700;87;25883;-80
2022/10/22 07:16:57;;;;;;;29.60;18.85;;;;;;;10.94;98.72;100342.03;1621573;87;27540;-80
2022/10/22 07:19:24;;;;;;;26.40;18.60;;;;;;;10.96;98.80;100333.78;1621506;87;25938;-79
2022/10/22 07:21:50;;;;;;;26.70;17.32;;;;;;;10.98;98.83;100326.38;1616520;87;25331;-80
2022/10/22 07:24:16;;;;;;;23.10;18.70;;;;;;;11.01;98.93;100323.31;1619951;87;26024;-80
2022/10/22 07:26:43;;;;;;;23.40;16.97;;;;;;;11.03;98.94;100322.61;1602841;87;26228;-79
2022/10/22 07:29:09;;;;;;;26.23;18.60;;;;;;;11.06;99.11;100318.17;1601536;88;27482;-80
2022/10/22 07:31:35;;;;;;;26.77;18.30;;;;;;;11.11;99.19;100317.09;1616143;88;26277;-80
2022/10/22 07:34:02;;;;;;;27.40;18.37;;;;;;;11.15;99.27;100309.80;1621062;87;25666;-80
2022/10/22 07:36:28;;;;;;;31.23;19.45;;;;;;;11.17;99.20;100320.31;1621002;87;25884;-80
2022/10/22 07:38:57;;;;;;;29.30;19.27;;;;;;;11.20;99.22;100319.42;1594891;88;25788;-80
2022/10/22 07:41:25;;;;;;;23.92;17.40;;;;;;;11.23;99.24;100328.40;1578429;89;27613;-80
2022/10/22 07:43:51;;;;;;;25.82;18.50;;;;;;;11.26;99.12;100324.50;1630480;86;26312;-80
2022/10/22 07:46:18;;;;;;;24.43;17.87;;;;;;;11.27;99.08;100326.97;1630185;87;25847;-80
2022/10/22 07:48:44;;;;;;;25.68;18.02;;;;;;;11.26;99.01;100328.52;1629187;87;25801;-80
2022/10/22 07:51:11;;;;;;;23.85;17.92;;;;;;;11.28;99.02;100330.48;1606995;88;26395;-80
2022/10/22 07:53:38;;;;;;;24.57;17.35;;;;;;;11.29;99.03;100329.48;1605203;87;27460;-80
2022/10/22 07:56:05;;;;;;;26.30;18.23;;;;;;;11.30;99.13;100327.09;1612508;87;25902;-80
2022/10/22 07:58:31;;;;;;;24.57;18.32;;;;;;;11.32;99.16;100334.42;1620799;87;25854;-80
2022/10/22 08:00:59;;;;;;;26.45;18.10;;;;;;;11.34;99.10;100339.08;1621752;87;25779;-81
2022/10/22 08:03:27;;;;;;;28.20;19.30;;;;;;;11.36;99.23;100333.84;1621013;87;25813;-79
2022/10/22 08:05:54;;;;;;;25.55;18.67;;;;;;;11.39;99.26;100329.94;1620533;87;27482;-79
2022/10/22 08:08:21;;;;;;;28.23;17.73;;;;;;;11.41;99.45;100334.08;1631710;86;25490;-79
2022/10/22 08:10:51;;;;;;;25.15;17.77;;;;;;;11.42;99.44;100341.09;1601173;88;25595;-79
2022/10/22 08:13:19;;;;;;;26.25;19.42;;;;;;;11.43;99.49;100341.41;1604179;88;26045;-79
2022/10/22 08:15:46;;;;;;;28.02;18.30;;;;;;;11.46;99.58;100341.00;1611124;87;26639;-79
2022/10/22 08:18:12;;;;;;;26.50;18.70;;;;;;;11.47;99.46;100349.88;1623159;87;27487;-79
2022/10/22 08:20:40;;;;;;;28.80;17.67;;;;;;;11.48;99.42;100344.31;1629973;86;26200;-79
2022/10/22 08:23:06;;;;;;;27.98;19.37;;;;;;;11.49;99.39;100335.75;1620361;87;26404;-79
2022/10/22 08:25:33;;;;;;;28.50;18.17;;;;;;;11.51;99.34;100333.70;1598976;87;26575;-79
2022/10/22 08:27:59;;;;;;;28.30;18.75;;;;;;;11.50;99.25;100334.20;1595705;87;26986;-78
2022/10/22 08:30:28;;;;;;;28.60;18.07;;;;;;;11.51;99.33;100337.72;1596270;88;28839;-79
2022/10/22 08:32:55;;;;;;;70.57;44.10;;;;;;;11.52;99.36;100344.25;1586602;88;26350;-79
2022/10/22 08:35:22;;;;;;;43.17;23.92;;;;;;;11.52;99.56;100344.76;1594362;88;25868;-79
2022/10/22 08:37:48;;;;;;;43.35;27.45;;;;;;;11.53;99.61;100345.89;1626021;86;25822;-79
2022/10/22 08:40:31;;;;;;;44.88;25.30;;;;;;;11.56;99.69;100348.19;1631760;86;25889;-79
2022/10/22 08:43:54;;;;;;;31.70;20.92;;;;;;;11.60;99.67;100350.78;1630279;86;27466;-79
2022/10/22 08:46:59;;;;;;;152.95;86.70;;;;;;;11.62;99.66;100353.26;1629654;86;25647;-80
2022/10/22 08:49:29;;;;;;;42.73;26.65;;;;;;;11.63;99.76;100347.69;1602374;88;25910;-80
2022/10/22 08:51:59;;;;;;;35.30;23.30;;;;;;;11.64;99.84;100366.80;1601928;88;26603;-79
2022/10/22 08:54:57;;;;;;;38.33;24.25;;;;;;;11.64;99.97;100366.80;1601002;87;26534;-80
2022/10/22 08:57:53;;;;;;;34.55;21.65;;;;;;;11.69;100.00;100362.72;1613281;87;27551;-80
2022/10/22 09:00:28;;;;;;;38.92;21.85;;;;;;;11.72;100.00;100369.03;1606382;87;25889;-79
2022/10/22 09:03:28;;;;;;;37.05;21.80;;;;;;;11.73;100.00;100383.59;1604900;88;25360;-80
2022/10/22 09:06:09;;;;;;;33.63;20.80;;;;;;;11.74;100.00;100377.17;1602427;87;25873;-80
2022/10/22 09:08:38;;;;;;;35.50;21.20;;;;;;;11.76;100.00;100373.78;1602571;89;25767;-80
2022/10/22 09:11:22;;;;;;;36.63;22.42;;;;;;;11.77;100.00;100371.92;1616367;88;27471;-80
2022/10/22 09:13:49;;;;;;;31.57;21.87;;;;;;;11.76;100.00;100366.27;1621061;88;25862;-80
2022/10/22 09:16:39;;;;;;;32.75;22.90;;;;;;;11.78;100.00;100374.94;1624781;87;25863;-79
2022/10/22 09:19:26;;;;;;;38.05;25.88;;;;;;;11.80;100.00;100369.69;1598583;86;26561;-79
2022/10/22 09:22:12;;;;;;;38.00;26.12;;;;;;;11.82;100.00;100378.88;1624568;86;25945;-79
2022/10/22 09:24:46;;;;;;;38.33;25.65;;;;;;;11.85;100.00;100375.77;1628389;86;27517;-79
2022/10/22 09:27:18;;;;;;;35.23;25.30;;;;;;;11.86;100.00;100369.39;1619953;87;26538;-79
2022/10/22 09:29:47;;;;;;;35.50;22.98;;;;;;;11.89;100.00;100369.01;1618693;88;26492;-79
2022/10/22 09:32:15;;;;;;;34.63;21.37;;;;;;;11.93;100.00;100363.55;1596080;89;25833;-79
2022/10/22 09:34:44;;;;;;;39.18;23.42;;;;;;;11.92;100.00;100364.05;1616928;88;26044;-79
2022/10/22 09:37:11;;;;;;;37.48;26.12;;;;;;;11.96;100.00;100363.13;1613713;88;27548;-77
2022/10/22 09:39:42;;;;;;;39.27;25.85;;;;;;;12.01;100.00;100366.05;1616421;88;25891;-77
2022/10/22 09:42:11;;;;;;;35.85;22.60;;;;;;;12.03;100.00;100362.64;1619310;88;25899;-79
2022/10/22 09:44:37;;;;;;;45.40;24.87;;;;;;;12.04;100.00;100362.43;1598195;88;26240;-79
2022/10/22 09:47:28;;;;;;;40.38;25.23;;;;;;;12.08;100.00;100359.65;1618424;88;25920;-78
2022/10/22 09:50:20;;;;;;;43.05;25.85;;;;;;;12.10;100.00;100357.59;1617942;88;27497;-80
2022/10/22 09:53:06;;;;;;;38.53;22.75;;;;;;;12.13;100.00;100359.88;1626049;87;26638;-79
2022/10/22 09:55:33;;;;;;;42.40;25.27;;;;;;;12.13;100.00;100360.39;1629142;87;26357;-80
2022/10/22 09:57:59;;;;;;;45.00;23.42;;;;;;;12.14;100.00;100363.41;1630597;87;26680;-80
2022/10/22 10:00:28;;;;;;;38.80;24.45;;;;;;;12.17;100.00;100361.12;1629879;87;26786;-79
2022/10/22 10:02:59;;;;;;;42.78;26.20;;;;;;;12.19;100.00;100355.55;1621151;88;27510;-79
2022/10/22 10:05:33;;;;;;;37.50;24.70;;;;;;;12.20;100.00;100363.42;1618354;88;25953;-79
2022/10/22 10:08:12;;;;;;;40.28;24.10;;;;;;;12.23;100.00;100360.31;1626342;87;25840;-79
2022/10/22 10:11:01;;;;;;;40.20;23.18;;;;;;;12.24;100.00;100363.33;1622495;88;26557;-79
2022/10/22 10:13:51;;;;;;;44.50;26.65;;;;;;;12.26;100.00;100369.83;1623361;87;26021;-79
2022/10/22 10:16:38;;;;;;;41.60;24.82;;;;;;;12.29;100.00;100378.33;1620210;87;27534;-79
2022/10/22 10:19:36;;;;;;;46.42;26.30;;;;;;;12.31;100.00;100372.23;1607432;88;25783;-79
2022/10/22 10:22:17;;;;;;;48.65;25.85;;;;;;;12.35;100.00;100370.80;1606780;88;25560;-79
2022/10/22 10:24:56;;;;;;;;;;;;;;;12.40;100.00;100368.84;1570999;88;26493;-78
2022/10/22 10:29:14;;;;;;;49.80;27.87;;;;;;;12.49;100.00;100355.50;1827160;77;25685;-78
2022/10/22 10:32:19;;;;;;;49.95;30.60;;;;;;;12.48;100.00;100374.02;1806044;78;25917;-78
2022/10/22 10:35:23;;;;;;;44.93;27.15;;;;;;;12.51;100.00;100372.78;1777467;78;27472;-80
2022/10/22 10:38:00;;;;;;;53.65;30.70;;;;;;;12.52;100.00;100368.54;1807000;78;26417;-80
2022/10/22 10:40:32;;;;;;;46.20;28.50;;;;;;;12.56;100.00;100376.50;1806885;78;26381;-80
2022/10/22 10:43:09;;;;;;;45.90;26.68;;;;;;;12.60;100.00;100377.73;1804195;78;25754;-80
2022/10/22 10:45:59;;;;;;;46.73;26.90;;;;;;;12.63;100.00;100382.72;1814026;78;25719;-80
2022/10/22 10:48:53;;;;;;;52.17;28.90;;;;;;;12.66;100.00;100393.58;1808496;78;27621;-80
2022/10/22 10:51:53;;;;;;;51.33;27.48;;;;;;;12.68;100.00;100390.97;1802053;78;25884;-80
2022/10/22 10:54:43;;;;;;;45.17;26.85;;;;;;;12.69;100.00;100379.71;1749456;78;25647;-80
2022/10/22 10:57:44;;;;;;;53.05;28.98;;;;;;;12.71;100.00;100373.61;1810321;78;25880;-78
2022/10/22 11:00:22;;;;;;;48.55;26.15;;;;;;;12.72;100.00;100365.87;1807005;78;25887;-80
2022/10/22 11:03:28;;;;;;;52.53;30.25;;;;;;;12.75;100.00;100350.16;1804149;78;26822;-80
2022/10/22 11:06:02;;;;;;;47.70;27.20;;;;;;;12.78;100.00;100350.27;1801390;78;25829;-80
2022/10/22 11:08:33;;;;;;;51.25;29.23;;;;;;;12.84;100.00;100356.98;1801488;78;25947;-80
2022/10/22 11:11:16;;;;;;;45.35;27.60;;;;;;;12.89;100.00;100359.89;1800567;78;25755;-80
2022/10/22 11:13:51;;;;;;;44.15;26.12;;;;;;;12.94;100.00;100349.83;1809770;78;26433;-80
2022/10/22 11:16:35;;;;;;;45.23;26.95;;;;;;;12.96;100.00;100349.94;1778646;79;27441;-79
2022/10/22 11:19:25;;;;;;;52.65;29.40;;;;;;;13.00;100.00;100357.09;1769864;79;26643;-79
2022/10/22 11:22:05;;;;;;;48.33;28.17;;;;;;;13.04;100.00;100355.63;1752233;80;25858;-79
2022/10/22 11:24:40;;;;;;;46.02;26.57;;;;;;;13.06;100.00;100362.50;1768553;79;26491;-81
2022/10/22 11:27:38;;;;;;;43.95;25.15;;;;;;;13.07;100.00;100356.58;1772320;79;25877;-80
2022/10/22 11:30:15;;;;;;;46.48;27.07;;;;;;;13.07;100.00;100356.06;1770215;80;28241;-80
2022/10/22 11:32:46;;;;;;;39.55;24.18;;;;;;;13.09;100.00;100354.50;1759802;80;25944;-78